createdAt,value
2019-04-06T00:02:52.995Z,10.32
2019-04-06T00:07:54.658Z,10.26
2019-04-06T00:12:56.220Z,10.23
2019-04-06T00:17:57.814Z,10.21
2019-04-06T00:22:59.581Z,10.16
2019-04-06T00:28:01.136Z,10.17
2019-04-06T00:33:04.721Z,10.13
2019-04-06T00:38:06.766Z,10.07
2019-04-06T00:43:08.485Z,10.03
2019-04-06T00:48:10.148Z,9.96
2019-04-06T00:53:11.840Z,9.93
2019-04-06T00:58:13.400Z,9.93
2019-04-06T01:03:15.079Z,9.88
2019-04-06T01:08:16.645Z,9.88
2019-04-06T01:13:18.232Z,9.85
2019-04-06T01:18:19.784Z,9.79
2019-04-06T01:23:21.330Z,9.73
2019-04-06T01:28:22.877Z,9.68
2019-04-06T01:33:24.573Z,9.68
2019-04-06T01:38:26.317Z,9.64
2019-04-06T01:43:27.866Z,9.63
2019-04-06T01:48:29.414Z,9.57
2019-04-06T01:53:32.134Z,9.54
2019-04-06T01:58:33.798Z,9.50
2019-04-06T02:03:35.424Z,9.40
2019-04-06T02:08:37.037Z,9.35
2019-04-06T02:13:38.726Z,9.30
2019-04-06T02:18:40.439Z,9.29
2019-04-06T02:23:41.989Z,9.25
2019-04-06T02:28:44.693Z,9.26
2019-04-06T02:33:52.331Z,9.21
2019-04-06T02:38:56.784Z,9.24
2019-04-06T02:43:58.465Z,9.07
2019-04-06T02:49:00.107Z,9.03
2019-04-06T02:54:02.012Z,8.97
2019-04-06T02:59:04.127Z,8.90
2019-04-06T03:04:05.809Z,8.87
2019-04-06T03:09:07.370Z,8.91
2019-04-06T03:14:09.123Z,8.93
2019-04-06T03:19:10.669Z,8.98
2019-04-06T03:24:12.266Z,9.06
2019-04-06T03:29:13.811Z,9.07
2019-04-06T03:34:20.750Z,9.04
2019-04-06T03:39:18.958Z,9.01
2019-04-06T03:44:20.676Z,8.95
2019-04-06T03:49:22.292Z,8.94
2019-04-06T03:54:24.045Z,8.90
2019-04-06T03:59:25.671Z,8.86
2019-04-06T04:04:27.463Z,8.82
2019-04-06T04:09:29.113Z,8.75
2019-04-06T04:14:30.678Z,8.75
2019-04-06T04:19:32.246Z,8.73
2019-04-06T04:24:33.826Z,8.70
2019-04-06T04:29:35.367Z,8.63
2019-04-06T04:34:36.959Z,8.62
2019-04-06T04:39:38.510Z,8.56
2019-04-06T04:44:42.749Z,8.51
2019-04-06T04:49:44.520Z,8.45
2019-04-06T04:54:46.284Z,8.40
2019-04-06T04:59:47.939Z,8.40
2019-04-06T05:04:49.483Z,8.44
2019-04-06T05:09:51.224Z,8.50
2019-04-06T05:15:03.609Z,8.59
2019-04-06T05:20:06.936Z,8.57
2019-04-06T05:25:09.037Z,8.52
2019-04-06T05:30:11.351Z,8.52
2019-04-06T05:35:13.237Z,8.40
2019-04-06T05:40:14.912Z,8.34
2019-04-06T05:45:16.475Z,8.30
2019-04-06T05:50:18.057Z,8.22
2019-04-06T05:55:19.838Z,8.15
2019-04-06T06:00:21.451Z,8.18
2019-04-06T06:05:23.116Z,8.22
2019-04-06T06:10:24.673Z,8.27
2019-04-06T06:15:26.369Z,8.34
2019-04-06T06:20:28.063Z,8.49
2019-04-06T06:25:31.053Z,8.81
2019-04-06T06:30:32.746Z,8.87
2019-04-06T06:35:34.330Z,9.05
2019-04-06T06:40:35.990Z,9.39
2019-04-06T06:45:37.645Z,9.83
2019-04-06T06:50:39.194Z,10.17
2019-04-06T06:55:41.122Z,10.17
2019-04-06T07:00:42.903Z,10.34
2019-04-06T07:05:44.452Z,10.56
2019-04-06T07:10:46.104Z,11.03
2019-04-06T07:15:47.695Z,11.49
2019-04-06T07:20:49.245Z,11.88
2019-04-06T07:25:57.451Z,11.90
2019-04-06T07:30:54.580Z,11.55
2019-04-06T07:35:56.407Z,11.36
2019-04-06T07:40:57.953Z,11.21
2019-04-06T07:45:59.609Z,11.08
2019-04-06T07:51:01.193Z,11.03
2019-04-06T07:56:03.537Z,10.94
2019-04-06T08:01:05.184Z,10.88
2019-04-06T08:06:06.838Z,10.98
2019-04-06T08:11:08.708Z,10.99
2019-04-06T08:16:10.416Z,11.07
2019-04-06T08:21:12.026Z,11.07
2019-04-06T08:26:13.643Z,11.03
2019-04-06T08:31:15.203Z,11.01
2019-04-06T08:36:16.869Z,10.97
2019-04-06T08:41:18.459Z,10.99
2019-04-06T08:46:20.034Z,10.94
2019-04-06T08:51:21.841Z,10.98
2019-04-06T08:56:23.549Z,11.09
2019-04-06T09:01:27.009Z,11.22
2019-04-06T09:06:30.075Z,11.31
2019-04-06T09:11:31.797Z,11.37
2019-04-06T09:16:33.381Z,11.41
2019-04-06T09:21:34.933Z,11.45
2019-04-06T09:26:36.774Z,11.62
2019-04-06T09:31:38.709Z,11.76
2019-04-06T09:36:40.388Z,11.87
2019-04-06T09:41:42.531Z,11.98
2019-04-06T09:47:03.046Z,12.16
2019-04-06T09:52:24.954Z,12.34
2019-04-06T09:57:40.398Z,12.34
2019-04-06T10:02:50.085Z,12.30
2019-04-06T10:08:02.601Z,12.03
2019-04-06T10:13:16.383Z,11.90
2019-04-06T10:18:19.841Z,11.89
2019-04-06T10:23:30.534Z,11.93
2019-04-06T10:28:38.012Z,12.09
2019-04-06T10:33:56.680Z,12.28
2019-04-06T10:39:16.891Z,12.33
2019-04-06T10:44:20.405Z,12.25
2019-04-06T10:49:27.570Z,12.23
2019-04-06T10:54:34.938Z,12.21
2019-04-06T10:59:59.875Z,12.04
2019-04-06T11:04:53.411Z,11.91
2019-04-06T11:09:56.856Z,11.83
2019-04-06T11:15:17.155Z,11.73
2019-04-06T11:20:33.098Z,11.66
2019-04-06T11:25:52.059Z,11.57
2019-04-06T11:30:57.941Z,11.21
2019-04-06T11:36:04.555Z,10.99
2019-04-06T11:41:08.841Z,10.84
2019-04-06T11:46:24.480Z,10.74
2019-04-06T11:51:34.170Z,10.68
2019-04-06T11:56:55.770Z,10.51
2019-04-06T12:02:04.979Z,10.43
2019-04-06T12:07:06.599Z,10.32
2019-04-06T12:12:16.334Z,10.14
2019-04-06T12:17:20.027Z,10.22
2019-04-06T12:22:30.447Z,10.27
2019-04-06T12:27:50.855Z,10.21
2019-04-06T12:33:11.312Z,10.14
2019-04-06T12:38:25.502Z,10.21
2019-04-06T12:43:45.535Z,10.29
2019-04-06T12:49:05.880Z,10.32
2019-04-06T12:54:13.746Z,10.28
2019-04-06T12:59:29.638Z,10.26
2019-04-06T13:04:50.634Z,10.32
2019-04-06T13:09:55.186Z,10.32
2019-04-06T13:14:58.645Z,10.30
2019-04-06T13:20:19.094Z,10.20
2019-04-06T13:25:28.617Z,10.30
2019-04-06T13:30:32.205Z,10.30
2019-04-06T13:35:41.541Z,10.34
2019-04-06T13:40:45.000Z,10.34
2019-04-06T13:45:52.616Z,10.37
2019-04-06T13:51:09.549Z,10.38
2019-04-06T13:56:30.043Z,10.36
2019-04-06T14:01:36.155Z,10.32
2019-04-06T14:06:51.943Z,10.32
2019-04-06T14:11:55.405Z,10.34
2019-04-06T14:17:03.196Z,10.32
2019-04-06T14:22:18.945Z,10.30
2019-04-06T14:27:31.590Z,10.26
2019-04-06T14:32:54.042Z,10.28
2019-04-06T14:38:16.271Z,10.30
2019-04-06T14:43:29.069Z,10.24
2019-04-06T14:48:32.626Z,10.22
2019-04-06T14:53:54.576Z,10.15
2019-04-06T14:58:57.208Z,10.14
2019-04-06T15:04:18.192Z,10.08
2019-04-06T15:09:22.125Z,10.04
2019-04-06T15:14:31.619Z,9.95
2019-04-06T15:19:33.236Z,9.95
2019-04-06T15:24:36.699Z,10.02
2019-04-06T15:29:46.312Z,10.03
2019-04-06T15:34:49.771Z,10.03
2019-04-06T15:39:53.636Z,10.15
2019-04-06T15:45:10.268Z,10.10
2019-04-06T15:50:20.032Z,10.06
2019-04-06T15:55:29.543Z,10.00
2019-04-06T16:00:33.382Z,9.97
2019-04-06T16:05:37.716Z,9.94
2019-04-06T16:10:44.107Z,9.93
2019-04-06T16:15:53.738Z,9.93
2019-04-06T16:21:00.724Z,9.95
2019-04-06T16:26:19.229Z,9.87
2019-04-06T16:31:28.760Z,9.84
2019-04-06T16:36:33.219Z,9.81
2019-04-06T16:41:53.652Z,9.59
2019-04-06T16:47:13.907Z,9.55
2019-04-06T16:52:29.976Z,9.53
2019-04-06T16:57:53.750Z,9.25
2019-04-06T17:02:57.711Z,8.85
2019-04-06T17:08:10.738Z,8.55
2019-04-06T17:13:08.901Z,8.27
2019-04-06T17:18:24.418Z,8.16
2019-04-06T17:23:28.299Z,7.88
2019-04-06T17:28:34.432Z,7.73
2019-04-06T17:33:37.901Z,7.77
2019-04-06T17:39:07.308Z,7.78
2019-04-06T17:44:27.885Z,7.80
2019-04-06T17:49:32.609Z,7.69
2019-04-06T17:54:53.981Z,7.56
2019-04-06T18:00:14.286Z,7.51
2019-04-06T18:05:34.523Z,7.47
2019-04-06T18:10:38.389Z,7.45
2019-04-06T18:15:40.501Z,7.41
2019-04-06T18:20:42.209Z,7.40
2019-04-06T18:25:44.114Z,7.41
2019-04-06T18:30:47.584Z,7.39
2019-04-06T18:35:49.608Z,7.36
2019-04-06T18:40:51.530Z,7.45
2019-04-06T18:45:55.435Z,7.48
2019-04-06T18:50:57.666Z,7.35
2019-04-06T18:55:59.374Z,7.14
2019-04-06T19:01:00.941Z,7.01
2019-04-06T19:06:03.317Z,7.07
2019-04-06T19:11:05.191Z,7.11
2019-04-06T19:16:07.018Z,7.13
2019-04-06T19:21:09.533Z,7.11
2019-04-06T19:26:11.130Z,7.15
2019-04-06T19:31:13.497Z,7.21
2019-04-06T19:36:16.281Z,7.29
2019-04-06T19:41:18.079Z,7.24
2019-04-06T19:46:20.360Z,7.23
2019-04-06T19:51:23.938Z,7.18
2019-04-06T19:56:28.294Z,7.18
2019-04-06T20:01:31.237Z,7.21
2019-04-06T20:06:33.235Z,7.21
2019-04-06T20:11:37.879Z,7.20
2019-04-06T20:16:41.987Z,7.11
2019-04-06T20:21:43.611Z,7.16
2019-04-06T20:26:47.554Z,7.04
2019-04-06T20:31:52.481Z,6.89
2019-04-06T20:36:54.201Z,6.76
2019-04-06T20:41:57.875Z,6.79
2019-04-06T20:47:01.656Z,6.73
2019-04-06T20:52:04.403Z,6.63
2019-04-06T20:57:07.626Z,6.63
2019-04-06T21:02:11.465Z,6.59
2019-04-06T21:07:13.020Z,6.66
2019-04-06T21:12:16.224Z,6.67
2019-04-06T21:17:19.726Z,6.58
2019-04-06T21:22:21.831Z,6.44
2019-04-06T21:27:25.006Z,6.37
2019-04-06T21:32:28.263Z,6.40
2019-04-06T21:37:31.135Z,6.35
2019-04-06T21:42:34.237Z,6.19
2019-04-06T21:47:37.934Z,5.93
2019-04-06T21:52:39.484Z,5.80
2019-04-06T21:57:41.974Z,5.78
2019-04-06T22:02:47.044Z,5.79
2019-04-06T22:07:52.154Z,5.76
2019-04-06T22:12:52.448Z,5.72
2019-04-06T22:17:54.080Z,5.69
2019-04-06T22:22:57.327Z,5.65
2019-04-06T22:28:00.923Z,5.73
2019-04-06T22:33:02.991Z,5.76
2019-04-06T22:38:06.185Z,5.85
2019-04-06T22:43:08.830Z,5.92
2019-04-06T22:48:10.604Z,5.97
2019-04-06T22:53:13.484Z,5.99
2019-04-06T22:58:15.306Z,5.98
2019-04-06T23:03:25.332Z,6.00
2019-04-06T23:08:26.841Z,6.01
2019-04-06T23:13:28.963Z,6.08
2019-04-06T23:18:31.106Z,6.16
2019-04-06T23:23:32.807Z,6.26
2019-04-06T23:28:34.563Z,6.35
2019-04-06T23:33:36.109Z,6.31
2019-04-06T23:38:39.499Z,6.24
2019-04-06T23:43:41.577Z,6.08
2019-04-06T23:48:44.053Z,6.00
2019-04-06T23:53:45.676Z,6.03
2019-04-06T23:58:47.359Z,6.00
